• images/banner/banner1.jpg
  • images/banner/banner2.jpg

Team Member Login

Aviation Weather

[source: ADDS]
METAR
EGVN 261750Z 31005KT 9999 SCT042 12/04 Q1032 NOSIG =
TAF EGVN 261642Z 2618/2718 32005KT 9999 SCT035
TAF
TAF EGVN 261642Z 2618/2718 32005KT 9999 SCT035 =